createdAt,value
2023-04-16T00:00:22.008Z,8.98
2023-04-16T00:05:23.879Z,9.52
2023-04-16T00:10:25.657Z,10.30
2023-04-16T00:15:27.480Z,9.95
2023-04-16T00:20:29.214Z,10.98
2023-04-16T00:25:31.325Z,10.32
2023-04-16T00:30:33.097Z,10.95
2023-04-16T00:35:35.000Z,11.20
2023-04-16T00:40:36.740Z,11.10
2023-04-16T00:45:38.741Z,11.93
2023-04-16T00:50:40.640Z,13.57
2023-04-16T00:55:42.725Z,12.85
2023-04-16T01:00:44.470Z,13.52
2023-04-16T01:05:49.310Z,14.38
2023-04-16T01:10:51.044Z,14.20
2023-04-16T01:15:52.941Z,15.00
2023-04-16T01:20:54.681Z,15.98
2023-04-16T01:25:56.498Z,15.45
2023-04-16T01:30:58.318Z,15.55
2023-04-16T01:36:20.498Z,15.43
2023-04-16T01:41:22.636Z,15.52
2023-04-16T01:46:29.364Z,15.32
2023-04-16T01:51:32.203Z,16.25
2023-04-16T01:56:33.977Z,15.80
2023-04-16T02:01:35.815Z,15.10
2023-04-16T02:06:39.495Z,15.63
2023-04-16T02:11:41.229Z,14.95
2023-04-16T02:16:43.064Z,12.77
2023-04-16T02:21:53.276Z,12.95
2023-04-16T02:26:55.053Z,13.00
2023-04-16T02:31:56.975Z,12.73
2023-04-16T02:36:59.551Z,12.30
2023-04-16T02:42:02.782Z,13.15
2023-04-16T02:47:04.624Z,12.68
2023-04-16T02:52:06.406Z,13.85
2023-04-16T02:57:08.843Z,13.43
2023-04-16T03:02:10.833Z,13.70
2023-04-16T03:07:13.753Z,13.40
2023-04-16T03:12:15.514Z,13.18
2023-04-16T03:17:17.265Z,13.52
2023-04-16T03:22:19.115Z,13.63
2023-04-16T03:27:21.421Z,12.32
2023-04-16T03:32:23.377Z,13.00
2023-04-16T03:37:25.255Z,13.05
2023-04-16T03:42:27.277Z,12.65
2023-04-16T03:47:29.081Z,13.02
2023-04-16T03:52:34.833Z,13.55
2023-04-16T03:57:37.190Z,15.02
2023-04-16T04:02:45.026Z,15.30
2023-04-16T04:07:53.103Z,17.10
2023-04-16T04:12:54.914Z,16.67
2023-04-16T04:17:57.527Z,17.70
2023-04-16T04:22:59.400Z,17.55
2023-04-16T04:28:02.204Z,17.67
2023-04-16T04:33:04.177Z,18.15
2023-04-16T04:38:06.600Z,17.83
2023-04-16T04:43:09.119Z,17.55
2023-04-16T04:48:11.305Z,16.70
2023-04-16T04:53:14.963Z,17.05
2023-04-16T04:58:17.666Z,17.60
2023-04-16T05:03:24.004Z,17.13
2023-04-16T05:08:25.810Z,16.90
2023-04-16T05:13:27.577Z,18.20
2023-04-16T05:18:29.324Z,17.25
2023-04-16T05:23:31.173Z,16.95
2023-04-16T05:28:32.925Z,16.92
2023-04-16T05:33:34.812Z,18.05
2023-04-16T05:38:36.569Z,17.70
2023-04-16T05:43:38.304Z,18.30
2023-04-16T05:48:40.030Z,18.13
2023-04-16T05:53:42.153Z,17.00
2023-04-16T05:58:43.872Z,17.83
2023-04-16T06:03:45.855Z,18.35
2023-04-16T06:08:47.682Z,16.73
2023-04-16T06:13:49.461Z,16.95
2023-04-16T06:18:51.200Z,17.38
2023-04-16T06:23:52.993Z,18.50
2023-04-16T06:28:54.756Z,18.13
2023-04-16T06:33:56.791Z,18.10
2023-04-16T06:38:58.508Z,18.17
2023-04-16T06:44:00.287Z,17.83
2023-04-16T06:49:02.327Z,19.30
2023-04-16T06:54:04.242Z,18.63
2023-04-16T06:59:06.262Z,18.17
2023-04-16T07:04:08.233Z,18.98
2023-04-16T07:09:10.438Z,17.35
2023-04-16T07:14:12.356Z,17.88
2023-04-16T07:19:14.170Z,17.33
2023-04-16T07:24:16.185Z,17.58
2023-04-16T07:29:17.986Z,18.17
2023-04-16T07:34:20.023Z,17.45
2023-04-16T07:39:21.762Z,17.50
2023-04-16T07:44:23.612Z,18.45
2023-04-16T07:49:25.701Z,18.00
2023-04-16T07:54:28.937Z,19.10
2023-04-16T07:59:31.280Z,19.52
2023-04-16T08:04:33.275Z,19.17
2023-04-16T08:09:38.541Z,21.88
2023-04-16T08:14:41.324Z,21.60
2023-04-16T08:19:47.121Z,20.50
2023-04-16T08:24:48.914Z,22.52
2023-04-16T08:29:51.356Z,23.38
2023-04-16T08:34:53.226Z,25.27
2023-04-16T08:39:54.998Z,26.55
2023-04-16T08:45:08.948Z,24.02
2023-04-16T08:50:12.117Z,28.23
2023-04-16T08:55:16.981Z,26.15
2023-04-16T09:00:19.534Z,24.20
2023-04-16T09:05:25.690Z,25.17
2023-04-16T09:10:27.764Z,25.70
2023-04-16T09:15:29.653Z,25.45
2023-04-16T09:20:31.405Z,24.42
2023-04-16T09:25:38.619Z,25.15
2023-04-16T09:30:41.357Z,25.42
2023-04-16T09:35:51.284Z,25.75
2023-04-16T09:41:08.657Z,25.53
2023-04-16T09:46:12.871Z,26.50
2023-04-16T09:51:14.795Z,25.85
2023-04-16T09:56:16.776Z,25.17
2023-04-16T10:01:18.789Z,24.88
2023-04-16T10:06:23.504Z,23.80
2023-04-16T10:11:26.379Z,23.55
2023-04-16T10:16:29.893Z,22.48
2023-04-16T10:21:34.274Z,22.38
2023-04-16T10:26:36.862Z,21.90
2023-04-16T10:36:59.441Z,22.25
2023-04-16T10:42:09.195Z,21.65
2023-04-16T10:47:12.874Z,21.05
2023-04-16T10:52:20.239Z,21.13
2023-04-16T10:57:22.017Z,20.45
2023-04-16T11:02:29.235Z,21.88
2023-04-16T11:07:35.192Z,20.67
2023-04-16T11:12:46.424Z,20.77
2023-04-16T11:17:51.771Z,20.30
2023-04-16T11:22:55.685Z,18.40
2023-04-16T11:28:01.193Z,17.65
2023-04-16T11:33:11.411Z,18.30
2023-04-16T11:38:13.249Z,17.27
2023-04-16T11:43:16.722Z,15.65
2023-04-16T11:48:18.504Z,15.80
2023-04-16T11:53:20.271Z,14.80
2023-04-16T11:58:23.438Z,15.80
2023-04-16T12:03:39.660Z,14.63
2023-04-16T12:08:43.194Z,14.50
2023-04-16T12:14:11.574Z,13.48
2023-04-16T12:19:13.659Z,13.82
2023-04-16T12:24:20.917Z,12.18
2023-04-16T12:29:27.962Z,11.90
2023-04-16T12:34:46.658Z,11.77
2023-04-16T12:39:51.278Z,12.13
2023-04-16T12:44:53.216Z,12.43
2023-04-16T12:49:56.890Z,12.05
2023-04-16T12:54:58.674Z,12.63
2023-04-16T13:00:00.493Z,13.38
2023-04-16T13:05:02.678Z,12.70
2023-04-16T13:10:06.322Z,12.25
2023-04-16T13:15:08.833Z,12.75
2023-04-16T13:20:10.995Z,12.15
2023-04-16T13:25:12.774Z,10.70
2023-04-16T13:30:14.838Z,10.98
2023-04-16T13:35:16.590Z,11.60
2023-04-16T13:40:20.974Z,10.98
2023-04-16T13:45:22.800Z,11.18
2023-04-16T13:50:24.618Z,10.38
2023-04-16T13:55:26.552Z,10.43
2023-04-16T14:00:29.164Z,10.02
2023-04-16T14:05:30.945Z,11.02
2023-04-16T14:10:33.226Z,10.15
2023-04-16T14:15:35.188Z,10.70
2023-04-16T14:20:39.775Z,10.82
2023-04-16T14:25:41.618Z,10.18
2023-04-16T14:30:43.402Z,9.82
2023-04-16T14:35:45.177Z,10.10
2023-04-16T14:40:46.902Z,9.27
2023-04-16T14:45:48.776Z,9.75
2023-04-16T14:50:50.707Z,9.00
2023-04-16T14:55:52.612Z,8.70
2023-04-16T15:00:54.471Z,10.38
2023-04-16T15:05:57.080Z,9.65
2023-04-16T15:10:58.845Z,10.20
2023-04-16T15:16:04.972Z,10.55
2023-04-16T15:21:07.414Z,10.50
2023-04-16T15:26:09.220Z,9.82
2023-04-16T15:31:11.505Z,11.88
2023-04-16T15:36:13.534Z,10.68
2023-04-16T15:41:15.683Z,10.77
2023-04-16T15:46:17.629Z,10.68
2023-04-16T15:51:19.490Z,11.43
2023-04-16T15:56:21.421Z,11.52
2023-04-16T16:01:23.188Z,11.85
2023-04-16T16:06:25.031Z,11.93
2023-04-16T16:11:27.694Z,12.40
2023-04-16T16:16:30.875Z,12.60
2023-04-16T16:21:32.785Z,12.50
2023-04-16T16:26:35.023Z,12.57
2023-04-16T16:31:36.963Z,12.50
2023-04-16T16:36:38.921Z,11.95
2023-04-16T16:41:42.425Z,12.02
2023-04-16T16:46:44.270Z,11.18
2023-04-16T16:51:49.415Z,11.75
2023-04-16T16:56:53.081Z,12.30
2023-04-16T17:01:55.021Z,12.05
2023-04-16T17:06:56.811Z,11.77
2023-04-16T17:11:58.550Z,12.73
2023-04-16T17:17:00.655Z,11.57
2023-04-16T17:22:03.303Z,12.25
2023-04-16T17:27:05.062Z,12.18
2023-04-16T17:32:06.965Z,11.88
2023-04-16T17:37:08.720Z,11.90
2023-04-16T17:42:10.462Z,11.70
2023-04-16T17:47:12.291Z,12.27
2023-04-16T17:52:14.121Z,12.43
2023-04-16T17:57:16.572Z,12.68
2023-04-16T18:02:18.979Z,11.88
2023-04-16T18:07:21.017Z,12.95
2023-04-16T18:12:22.740Z,11.98
2023-04-16T18:17:24.547Z,10.77
2023-04-16T18:22:28.305Z,11.40
2023-04-16T18:27:30.167Z,11.32
2023-04-16T18:32:31.978Z,10.68
2023-04-16T18:37:33.748Z,10.68
2023-04-16T18:42:36.436Z,9.95
2023-04-16T18:47:40.033Z,10.30
2023-04-16T18:52:42.009Z,10.95
2023-04-16T18:57:43.816Z,10.88
2023-04-16T19:02:45.834Z,10.52
2023-04-16T19:07:47.857Z,11.05
2023-04-16T19:12:49.768Z,10.90
2023-04-16T19:17:51.533Z,11.15
2023-04-16T19:22:53.465Z,10.60
2023-04-16T19:27:56.566Z,10.80
2023-04-16T19:32:58.530Z,11.07
2023-04-16T19:38:00.744Z,10.48
2023-04-16T19:43:02.487Z,11.13
2023-04-16T19:48:04.472Z,10.77
2023-04-16T19:53:06.412Z,11.10
2023-04-16T19:58:08.936Z,11.52
2023-04-16T20:03:10.973Z,10.90
2023-04-16T20:08:12.777Z,11.38
2023-04-16T20:13:16.053Z,11.18
2023-04-16T20:18:19.547Z,11.43
2023-04-16T20:23:21.456Z,10.90
2023-04-16T20:28:23.243Z,11.55
2023-04-16T20:33:25.179Z,11.50
2023-04-16T20:38:30.149Z,11.95
2023-04-16T20:43:38.610Z,11.05
2023-04-16T20:48:40.556Z,11.23
2023-04-16T20:53:42.385Z,10.82
2023-04-16T20:58:44.349Z,11.20
2023-04-16T21:03:46.598Z,10.85
2023-04-16T21:08:48.435Z,10.90
2023-04-16T21:13:50.234Z,11.02
2023-04-16T21:18:51.950Z,11.10
2023-04-16T21:23:54.482Z,11.35
2023-04-16T21:28:56.221Z,11.20
2023-04-16T21:33:58.257Z,11.35
2023-04-16T21:39:00.218Z,11.65
2023-04-16T21:44:02.027Z,11.45
2023-04-16T21:49:03.908Z,12.52
2023-04-16T21:54:05.800Z,11.88
2023-04-16T21:59:07.616Z,11.70
2023-04-16T22:04:10.042Z,11.85
2023-04-16T22:09:12.090Z,11.10
2023-04-16T22:14:14.638Z,11.45
2023-04-16T22:19:17.769Z,12.25
2023-04-16T22:24:19.852Z,12.52
2023-04-16T22:29:21.621Z,12.65
2023-04-16T22:34:23.365Z,12.50
2023-04-16T22:39:25.102Z,12.57
2023-04-16T22:44:26.898Z,12.30
2023-04-16T22:49:33.186Z,12.57
2023-04-16T22:54:35.055Z,12.45
2023-04-16T22:59:36.767Z,12.90
2023-04-16T23:04:38.542Z,12.85
2023-04-16T23:09:40.529Z,13.20
2023-04-16T23:14:45.919Z,13.00
2023-04-16T23:19:47.746Z,12.80
2023-04-16T23:24:49.508Z,11.93
2023-04-16T23:29:51.235Z,12.73
2023-04-16T23:34:53.211Z,11.25
2023-04-16T23:39:54.986Z,12.93
2023-04-16T23:44:56.762Z,12.15
2023-04-16T23:49:58.567Z,12.57
2023-04-16T23:55:00.423Z,12.07
